Ergebnis 1 bis 2 von 2

Thema: Interresting METARS from today

  1. #1
    vACC-Examiner
    vACC-Mentor
    vACC-Controller
    vACC-Pilot


    Registriert seit
    06.11.2015
    Ort
    Pully
    Beiträge
    187
    Thanks
    583
    Thanked 336 Times in 141 Posts

    Standard Interresting METARS from today

    Just wanted to share with you interresting metar from today. I learned quite some stuff with the meteo guide (which you can also find in french/italian!).

    METAR LSZH 171150Z 26014KT 9999 4800SE VCSH FEW003 SCT010TCU
    BKN030 00/M01 Q1010 RESHSN R88/5903// NOSIG=
    METAR LSZH 171220Z 27013KT 9999 VCSH FEW007 FEW018TCU 01/M01
    Q1010 R88/29//// NOSIG=

    METAR LSGG 171150Z 28012G23KT 250V320 9000 VCSH FEW025TCU
    SCT035 BKN060 05/M03 Q1015 TEMPO 30020G30KT 3000
    SHRASN=

    METAR LSZB 171150Z 30008KT 8000 FEW005 SCT015 BKN030 00/M00
    Q1013 RETSSN NOSIG=
    METAR LSZB 171220Z 27011KT 230V320 9999 SCT013 BKN050 01/M00
    Q1013 R14/510194 NOSIG=

    METAR LSZG 171150Z AUTO 27016G33KT 9999 -SN BKN/// 03/M02 Q1013=

    METAR LSZR 171150Z 27016G28KT 9999 VCSH FEW029 BKN050 03/M01
    Q1008 NOSIG RMK G=

    METAR LSZC 171150Z AUTO 25021G45KT 210V290 0550 HZ VV008 03/M04
    Q1011 RESN= (poor Nino )
    METAR LSZC 171220Z 25017G29KT 1700 +SN VV011 01/M01 Q1012= (temperature drop from previous line!)

    METAR LSZL 171150Z VRB02KT 9999 FEW035 SCT050 BKN070 07/01
    Q1006 RMK BLU=
    METAR LSZL 171220Z NIL=
    METAR LSZS 171150Z 30015G30KT 250V320 2000 BLSN VV015 M06/M12
    Q1000 R03/4510// RMK K=
    METAR LSZS 171220Z VRB04KT 1500 SN VV015 M06/M11 Q1000
    R03/4510// RMK L=
    METAR RRA LSMA 171150Z AUTO VRB12G24KT 2200NDV -SHRASN SCT014
    BKN018 OVC032 03/M03 Q1012 RMK=
    METAR LSMA 171220Z NIL=
    METAR LSMD 171220Z NIL=
    METAR LSMD NIL=
    METAR LSME 171150Z 25014G26KT 230V290 9999 FEW026 02/M01 Q1011
    RMK BLU+=
    METAR LSME 171220Z NIL=
    METAR LSMS 171150Z 25013G25KT 220V280 6000 -SN SCT010 OVC030
    04/M04 Q1011 RMK WHT=
    METAR LSMS 171220Z 23004KT 150V290 9999 -SN OVC030 03/M03 Q1011
    RMK BLU=


    Well a lot of interresting notation that are not often displayed on metars. Have fun decoding them all!

  2. Danksagungen

    Alasdair Whyborn (17.01.2018),Ky Do (17.01.2018)

  3. #2
    vACC-Mentor
    vACC-Controller
    vACC-Pilot
    Avatar von Alasdair Whyborn (1341821)

    Registriert seit
    01.12.2015
    Ort
    Groningen, NL
    Beiträge
    92
    Thanks
    265
    Thanked 197 Times in 77 Posts

    Standard

    Also some nice weather up here in Groningen

    METAR EHGG 171225Z AUTO 26007KT 220V300 9999 SCT016 BKN022 BKN039
    03/01 Q0995 R23/290095 TEMPO 28015G25KT 4000 SHRAGS SCT012CB=


    TAF EHGG 171056Z 1712/1818 27015KT 9999 SCT025
    TEMPO 1712/1801 28015G25KT 4000 SHRAGSSN FEW008 SCT018CB
    BKN040
    PROB30 TEMPO 1712/1721 29022G32KT 2000 TSRAGS BKN012
    SCT015CB
    BECMG 1721/1724 24012KT
    BECMG 1803/1805 16013KT 2000 SNRA BKN004
    PROB40 1805/1809 1000 SN VV002
    BECMG 1807/1810 25022G35KT 6000 RADZ BKN012
    PROB30 1809/1813 24035G50KT
    BECMG 1811/1814 30015G25KT 9999 NSW SCT015
    PROB30 TEMPO 1814/1818 6000 -SHRAGS SCT018CB
    BECMG 1815/1818 25010KT=


    Had a driving lesson in the morning with snow and showers of heavy graupel/snow pellets, but didn't catch the METAR then (was around 0830z)
    Cheers,

    Alasdair

  4. Danksagungen

    Luca Santoro (17.01.2018)

Ähnliche Themen

  1. Metars
    Von Jean-Jacques Bessero (1089581) im Forum Forum français
    Antworten: 3
    Letzter Beitrag: 16.03.2009, 11:18

Berechtigungen

  • Neue Themen erstellen: Nein
  • Themen beantworten: Nein
  • Anhänge hochladen: Nein
  • Beiträge bearbeiten: Nein
  •